Flight Track Log - Related Links

Times and Time Zones

All times are in EDT time to prevent confusion due to time zone crossing. See the SWA34 flight status page for this flight to view local times or setup timezone preferences in your user account.

Time Position Orientation Groundspeed Altitude Reporting Facility
EDT Latitude Longitude Course Direction KTS MPH feet Rate Location/Type
Tue 08:13:44 PM 38.7708 -90.3350 51° Northeast 158 182 2,400  Level FAA TRACON SMA TRACON (SMA)
Tue 08:14:04 PM 38.7864 -90.3414 342° North 181 208 3,000 1,950 Climbing FAA TRACON SMA TRACON (SMA)
Tue 08:14:24 PM 38.8075 -90.3478 347° North 205 236 3,700 1,317 Climbing FAA TRACON SMA TRACON (SMA)
Tue 08:14:45 PM 38.8258 -90.3358 27° Northeast 239 275 3,900 1,200 Climbing FAA TRACON SMA TRACON (SMA)
Tue 08:15:04 PM 38.8356 -90.3081 66° East 278 320 4,500 1,846 Climbing FAA TRACON SMA TRACON (SMA)
Tue 08:15:24 PM 38.8339 -90.2750 94° East 301 346 5,100 2,951 Climbing FAA TRACON SMA TRACON (SMA)
Tue 08:16:05 PM 38.8250 -90.1994 99° East 312 359 7,500 3,700 Climbing FAA TRACON SMA TRACON (SMA)
Tue 08:16:24 PM 38.8231 -90.1664 94° East 306 352 8,800 4,000 Climbing FAA TRACON SMA TRACON (SMA)
Tue 08:16:44 PM 38.8217 -90.1256 92° East 298 343 10,100 2,850 Climbing FAA TRACON SMA TRACON (SMA)
Tue 08:17:04 PM 38.8206 -90.0917 92° East 304 350 10,700 1,902 Climbing FAA TRACON SMA TRACON (SMA)
Tue 08:17:25 PM 38.8189 -90.0558 93° East 321 369 11,400 2,700 Climbing FAA TRACON SMA TRACON (SMA)
Tue 08:17:44 PM 38.8161 -90.0103 94° East 334 384 12,500 2,615 Climbing FAA TRACON SMA TRACON (SMA)
Tue 08:18:04 PM 38.8144 -89.9728 93° East 342 394 13,100 1,463 Climbing FAA TRACON SMA TRACON (SMA)
Tue 08:18:25 PM 38.8122 -89.9328 94° East 359 413 13,500 1,902 Climbing FAA TRACON SMA TRACON (SMA)
Tue 08:18:45 PM 38.8111 -89.8819 92° East 374 430 14,400 2,462 Climbing FAA TRACON SMA TRACON (SMA)
Tue 08:19:04 PM 38.8086 -89.8394 94° East 385 443 15,100 2,308 Climbing FAA TRACON SMA TRACON (SMA)
Tue 08:19:24 PM 38.8061 -89.7964 94° East 392 451 15,900 2,700 Climbing FAA TRACON SMA TRACON (SMA)
Tue 08:19:44 PM 38.8042 -89.7422 93° East 398 458 16,900 2,634 Climbing FAA TRACON SMA TRACON (SMA)
Tue 08:20:05 PM 38.8000 -89.6989 97° East 397 457 17,700 1,909 Climbing FAA TRACON SMA TRACON (SMA)
Tue 08:20:28 PM 38.7997 -89.6558 90° East 397 457 18,300 2,143 Climbing FAA TRACON SMA TRACON (SMA)
Tue 08:20:47 PM 38.7969 -89.6000 94° East 406 467 19,200 2,432 Climbing FAA TRACON SMA TRACON (SMA)
Tue 08:21:05 PM 38.7936 -89.5547 95° East 413 475 19,800 2,108 Climbing FAA TRACON SMA TRACON (SMA)
Tue 08:21:24 PM 38.7933 -89.5094 90° East 414 476 20,500 2,250 Climbing FAA TRACON SMA TRACON (SMA)
Tue 08:21:45 PM 38.7914 -89.4514 92° East 422 486 21,300 1,902 Climbing FAA TRACON SMA TRACON (SMA)
Tue 08:22:05 PM 38.7964 -89.4044 82° East 429 494 21,800 1,538 Climbing FAA TRACON SMA TRACON (SMA)
Tue 08:22:24 PM 38.8025 -89.3569 81° East 440 506 22,300 1,692 Climbing FAA TRACON SMA TRACON (SMA)
Tue 08:22:44 PM 38.8100 -89.2964 81° East 447 514 22,900 1,610 Climbing FAA TRACON SMA TRACON (SMA)
Tue 08:23:05 PM 38.8117 -89.2467 88° East 452 520 23,400 1,610 Climbing FAA TRACON SMA TRACON (SMA)
Tue 08:23:25 PM 38.8150 -89.1967 85° East 455 524 24,000 2,000 Climbing FAA TRACON SMA TRACON (SMA)
Tue 08:23:44 PM 38.8172 -89.1339 87° East 459 528 24,700 2,000 Climbing FAA TRACON SMA TRACON (SMA)
Tue 08:24:04 PM 38.8203 -89.0833 86° East 460 529 25,300 1,024 Climbing FAA TRACON SMA TRACON (SMA)
Tue 08:24:25 PM 38.8194 -89.0708 95° East 460 529 25,400 1,522 Climbing FAA TRACON SMA TRACON (SMA)
Tue 08:25:11 PM 38.8200 -88.9708 90° East 461 531 27,000 1,582 Climbing Kansas City Center
Tue 08:26:15 PM 38.8078 -88.8056 95° East 462 532 28,300 1,306 Climbing Kansas City Center
Tue 08:27:15 PM 38.7864 -88.6378 99° East 469 540 29,700 1,388 Climbing Kansas City Center
Tue 08:28:16 PM 38.7703 -88.4686 97° East 470 541 31,100 1,258 Climbing Kansas City Center
Tue 08:29:19 PM 38.8011 -88.3000 77° East 492 566 32,300 1,113 Climbing Kansas City Center
Tue 08:30:20 PM 38.8597 -88.1447 64° Northeast 484 557 33,400 1,231 Climbing Kansas City Center
Tue 08:31:16 PM 38.9183 -87.9931 64° Northeast 483 556 34,700 821 Climbing Indianapolis Center
Tue 08:32:17 PM 38.9767 -87.8372 64° Northeast 482 555 35,000 146 Climbing Indianapolis Center
Tue 08:33:19 PM 39.0372 -87.6819 63° Northeast 482 555 35,000  Level Indianapolis Center
Tue 08:34:21 PM 39.0961 -87.5242 64° Northeast 485 558 35,000  Level Indianapolis Center
Tue 08:35:22 PM 39.1661 -87.3386 64° Northeast 486 559 35,000  Level Indianapolis Center
Tue 08:36:24 PM 39.2250 -87.1800 64° Northeast 489 563 35,000  Level Indianapolis Center
Tue 08:37:26 PM 39.2828 -87.0206 65° Northeast 488 562 35,000  Level Indianapolis Center
Tue 08:38:27 PM 39.3433 -86.8636 63° Northeast 487 560 35,000  Level Indianapolis Center
Tue 08:39:29 PM 39.4014 -86.7050 65° Northeast 487 560 35,000  Level Indianapolis Center
Tue 08:40:30 PM 39.4481 -86.5414 70° East 486 559 35,000  Level Indianapolis Center
Tue 08:41:32 PM 39.4906 -86.3758 72° East 488 562 35,000  Level Indianapolis Center
Tue 08:42:34 PM 39.5403 -86.1836 71° East 487 560 35,000  Level Indianapolis Center
Tue 08:43:35 PM 39.5825 -86.0181 72° East 488 562 35,000  Level Indianapolis Center
Tue 08:44:37 PM 39.6244 -85.8533 72° East 485 558 35,000 -927 Level Indianapolis Center
Tue 08:45:38 PM 39.6814 -85.6922 65° Northeast 491 565 33,100 -2,164 Descending Indianapolis Center
Tue 08:46:39 PM 39.7417 -85.5336 64° Northeast 489 563 30,600 -2,000 Descending Indianapolis Center
Tue 08:47:41 PM 39.7983 -85.3803 64° Northeast 471 542 29,000 -780 Descending Indianapolis Center
Tue 08:48:42 PM 39.8567 -85.2294 63° Northeast 465 535 29,000 -390 Level Indianapolis Center
Tue 08:49:44 PM 39.9128 -85.0733 65° Northeast 474 545 28,200 -878 Descending Indianapolis Center
Tue 08:50:45 PM 39.9808 -84.8886 64° Northeast 479 551 27,200 -927 Descending Indianapolis Center
Tue 08:51:47 PM 40.0331 -84.7447 65° Northeast 481 554 26,300 -976 Descending Indianapolis Center
Tue 08:52:48 PM 40.0925 -84.5856 64° Northeast 481 554 25,200 -1,082 Descending Indianapolis Center
Tue 08:53:49 PM 40.1403 -84.4275 68° East 465 535 24,100 -984 Descending Indianapolis Center
Tue 08:54:50 PM 40.1447 -84.2578 88° East 460 529 23,200 -1,073 Descending Indianapolis Center
Tue 08:55:52 PM 40.1469 -84.0936 89° East 449 517 21,900 -1,951 Descending Indianapolis Center
Tue 08:56:53 PM 40.1475 -83.9292 90° East 448 516 19,200 -2,557 Descending Indianapolis Center
Tue 08:57:54 PM 40.1506 -83.7672 89° East 440 506 16,700 -2,390 Descending Indianapolis Center
Tue 08:58:56 PM 40.1542 -83.6128 88° East 421 484 14,300 -2,412 Descending Indianapolis Center
Tue 08:59:31 PM 40.1575 -83.5092 88° East 400 460 12,800 -2,164 Descending Indianapolis Center
Tue 08:59:57 PM 40.1589 -83.4664 88° East 397 457 12,100 -1,574 Descending Indianapolis Center
Tue 09:00:32 PM 40.1639 -83.3625 86° East 382 440 11,200 -1,475 Descending Indianapolis Center
Tue 09:00:58 PM 40.1583 -83.3044 97° East 375 432 10,600 -1,222 Descending Indianapolis Center
Tue 09:01:26 PM 40.1506 -83.2517 101° East 348 400 10,100 -1,161 Descending Indianapolis Center
Tue 09:02:00 PM 40.1411 -83.1808 100° East 345 397 9,400 -1,164 Descending Indianapolis Center
Tue 09:02:33 PM 40.1328 -83.1186 100° East 310 357 8,800 -1,279 Descending Indianapolis Center
Tue 09:03:01 PM 40.1264 -83.0697 100° East 312 359 8,100 -1,475 Descending Indianapolis Center
Tue 09:03:34 PM 40.1194 -83.0081 98° East 304 350 7,300 -1,574 Descending Indianapolis Center
Tue 09:04:02 PM 40.1136 -82.9603 99° East 303 349 6,500 -1,418 Descending Indianapolis Center
Tue 09:04:29 PM 40.1072 -82.9111 100° East 295 339 6,000 -968 Descending Indianapolis Center
Tue 09:05:04 PM 40.1039 -82.8550 94° East 291 335 5,500 -688 Descending Indianapolis Center
Tue 09:06:05 PM 40.0722 -82.7822 120° Southeast 237 273 4,900 -767 Descending Indianapolis Center
Tue 09:06:30 PM 40.0544 -82.7581 134° Southeast 194 223 4,400 -1,082 Descending Indianapolis Center
Tue 09:07:06 PM 40.0275 -82.7531 172° South 204 235 3,800 -806 Descending Indianapolis Center
Tue 09:07:37 PM 40.0067 -82.7556 185° South 135 155 3,500 -1,082 Descending Indianapolis Center
Tue 09:08:07 PM 39.9894 -82.7569 184° South 161 185 2,700 -1,279 Descending Indianapolis Center
Tue 09:08:38 PM 39.9861 -82.7806 260° West 122 140 2,200 -774 Descending Indianapolis Center
Tue 09:09:09 PM 39.9900 -82.8033 283° West 144 166 1,900 -700 Descending Indianapolis Center
Tue 09:09:38 PM 39.9914 -82.8272 274° West 132 152 1,500 -787 Descending Indianapolis Center
Tue 09:10:10 PM 39.9919 -82.8514 272° West 135 155 1,100 -750 Descending Indianapolis Center

Login

Don't have an account? Register now (free) for customized features, flight alerts, and more!